Time;durP1;ratioP1;P1;durP2;ratioP2;P2;SDS_P1;SDS_P2;PMS_P1;PMS_P2;Temp;Humidity;BMP_temperature;BMP_pressure;BME280_temperature;BME280_humidity;BME280_pressure;Samples;Min_cycle;Max_cycle;Signal;HPM_P1;HPM_P2
2021/10/19 00:00:53;;;;;;;7.03;4.68;;;13.90;86.80;;;;;;2082754;28;20105;-94
2021/10/19 00:01:54;;;;;;;6.53;4.45;;;14.00;86.90;;;;;;2090806;28;20095;-92
2021/10/19 00:02:54;;;;;;;7.85;4.53;;;13.90;86.80;;;;;;2090697;28;20369;-93
2021/10/19 00:03:55;;;;;;;6.70;4.28;;;13.90;86.90;;;;;;2073574;28;20122;-93
2021/10/19 00:04:56;;;;;;;6.70;4.50;;;14.00;87.00;;;;;;2065288;28;20062;-93
2021/10/19 00:05:56;;;;;;;6.32;4.28;;;13.90;86.90;;;;;;2065364;28;20034;-93
2021/10/19 00:06:58;;;;;;;6.18;4.50;;;13.90;87.00;;;;;;2057571;28;20038;-93
2021/10/19 00:07:59;;;;;;;6.40;4.15;;;14.00;87.10;;;;;;2065532;28;20042;-93
2021/10/19 00:08:59;;;;;;;6.93;4.40;;;13.90;87.10;;;;;;2081634;28;20056;-93
2021/10/19 00:10:00;;;;;;;7.30;4.20;;;13.90;87.10;;;;;;2073609;28;20133;-93
2021/10/19 00:11:01;;;;;;;7.57;4.35;;;13.90;87.10;;;;;;2057309;28;20422;-94
2021/10/19 00:12:01;;;;;;;7.45;4.72;;;13.90;87.70;;;;;;2073585;28;20532;-93
2021/10/19 00:13:02;;;;;;;6.70;4.40;;;13.90;87.10;;;;;;2081810;28;20064;-93
2021/10/19 00:14:03;;;;;;;7.10;4.65;;;13.90;87.10;;;;;;2090073;28;20449;-93
2021/10/19 00:15:08;;;;;;;7.00;4.60;;;13.90;87.20;;;;;;2081589;28;20038;-93
2021/10/19 00:16:09;;;;;;;7.35;4.50;;;13.90;87.20;;;;;;2081683;28;20097;-93
2021/10/19 00:17:10;;;;;;;6.95;4.72;;;13.90;87.20;;;;;;2073062;28;20041;-94
2021/10/19 00:18:10;;;;;;;6.30;4.22;;;13.90;87.30;;;;;;2073619;28;20099;-94
2021/10/19 00:19:11;;;;;;;7.28;4.65;;;13.90;87.30;;;;;;2073359;28;20128;-93
2021/10/19 00:20:13;;;;;;;6.25;4.35;;;13.90;87.30;;;;;;2065173;28;20042;-94
2021/10/19 00:21:14;;;;;;;7.07;4.60;;;13.90;87.40;;;;;;2065926;28;20039;-92
2021/10/19 00:22:16;;;;;;;6.28;4.38;;;13.90;87.40;;;;;;2065279;28;20046;-92
2021/10/19 00:23:17;;;;;;;7.45;4.60;;;13.90;88.10;;;;;;2073768;28;20046;-93
2021/10/19 00:24:17;;;;;;;7.28;4.50;;;13.90;87.60;;;;;;2081360;28;20409;-93
2021/10/19 00:25:18;;;;;;;7.03;4.60;;;13.80;87.50;;;;;;2075365;28;20041;-91
2021/10/19 00:26:19;;;;;;;6.88;4.53;;;13.80;87.60;;;;;;2068125;28;20038;-93
2021/10/19 00:27:19;;;;;;;5.80;4.15;;;13.90;87.60;;;;;;2084649;28;20159;-92
2021/10/19 00:28:20;;;;;;;6.53;4.80;;;13.90;87.60;;;;;;2084546;28;20558;-95
2021/10/19 00:29:21;;;;;;;6.20;4.38;;;13.90;87.60;;;;;;2084259;28;20431;-92
2021/10/19 00:30:22;;;;;;;7.10;4.82;;;13.90;87.60;;;;;;2076202;28;20030;-92
2021/10/19 00:31:22;;;;;;;6.43;4.65;;;13.90;87.70;;;;;;2060071;28;20138;-93
2021/10/19 00:32:23;;;;;;;7.03;4.68;;;13.80;87.70;;;;;;2067759;28;20038;-93
2021/10/19 00:33:24;;;;;;;7.93;4.78;;;13.90;87.80;;;;;;2084283;28;20037;-92
2021/10/19 00:34:24;;;;;;;7.22;4.68;;;13.90;87.80;;;;;;2076334;28;20516;-93
2021/10/19 00:35:25;;;;;;;6.18;4.30;;;13.80;87.80;;;;;;2091379;28;20053;-89
2021/10/19 00:36:26;;;;;;;8.07;5.15;;;13.80;87.90;;;;;;2102751;28;20029;-87
2021/10/19 00:37:27;;;;;;;5.82;4.40;;;13.80;87.90;;;;;;2086155;28;20062;-87
2021/10/19 00:38:27;;;;;;;7.28;4.85;;;13.80;88.00;;;;;;2094639;28;20026;-84
2021/10/19 00:39:28;;;;;;;6.88;4.68;;;13.80;88.00;;;;;;2094129;28;20021;-92
2021/10/19 00:40:31;;;;;;;6.60;4.20;;;13.80;88.10;;;;;;2100967;28;20036;-93
2021/10/19 00:41:31;;;;;;;8.38;4.70;;;13.80;88.10;;;;;;2093076;28;20125;-93
2021/10/19 00:42:36;;;;;;;6.50;4.47;;;13.80;88.20;;;;;;2083042;28;20041;-93
2021/10/19 00:43:36;;;;;;;6.50;4.30;;;13.80;88.30;;;;;;2076193;28;20078;-93
2021/10/19 00:44:37;;;;;;;6.50;4.45;;;13.80;88.30;;;;;;2076667;28;20128;-92
2021/10/19 00:45:38;;;;;;;6.47;4.47;;;13.80;88.40;;;;;;2092462;28;20037;-93
2021/10/19 00:46:40;;;;;;;7.22;5.00;;;13.80;88.50;;;;;;2101516;28;20098;-92
2021/10/19 00:47:51;;;;;;;7.57;4.85;;;13.80;88.50;;;;;;2101773;28;20029;-92
2021/10/19 00:48:52;;;;;;;7.35;4.72;;;13.80;88.60;;;;;;2092665;28;20498;-92
2021/10/19 00:49:53;;;;;;;6.80;4.75;;;13.70;88.50;;;;;;2084435;28;20025;-92
2021/10/19 00:50:55;;;;;;;6.75;4.60;;;13.70;88.60;;;;;;2076297;28;20076;-93
2021/10/19 00:51:57;;;;;;;6.80;4.50;;;13.70;88.60;;;;;;2084448;28;20045;-92
2021/10/19 00:52:58;;;;;;;6.18;4.38;;;13.70;88.70;;;;;;2092707;28;20033;-93
2021/10/19 00:54:00;;;;;;;6.57;4.70;;;13.70;88.80;;;;;;2092057;28;20049;-93
2021/10/19 00:55:03;;;;;;;6.43;4.60;;;13.70;88.80;;;;;;2084409;28;20044;-91
2021/10/19 00:56:07;;;;;;;8.20;4.75;;;13.70;88.80;;;;;;2092268;28;20033;-92
2021/10/19 00:57:08;;;;;;;8.90;4.65;;;13.70;88.90;;;;;;2084661;28;20033;-93
2021/10/19 00:58:08;;;;;;;7.18;4.93;;;13.70;88.90;;;;;;2084305;28;20041;-93
2021/10/19 00:59:09;;;;;;;7.38;4.60;;;13.70;88.90;;;;;;2089764;28;20114;-93
2021/10/19 01:00:11;;;;;;;6.85;4.78;;;13.70;89.00;;;;;;2092151;28;20061;-93
2021/10/19 01:01:12;;;;;;;6.63;4.55;;;13.70;89.00;;;;;;2092911;28;20091;-93
2021/10/19 01:02:14;;;;;;;7.03;4.80;;;13.70;89.00;;;;;;2083907;28;20069;-93
2021/10/19 01:03:14;;;;;;;7.38;4.72;;;13.70;89.10;;;;;;2084409;28;20029;-93
2021/10/19 01:04:15;;;;;;;6.75;4.95;;;13.70;89.10;;;;;;2075794;28;20132;-93
2021/10/19 01:05:16;;;;;;;6.60;4.78;;;13.70;89.10;;;;;;2067872;28;20030;-92
2021/10/19 01:06:16;;;;;;;7.53;4.88;;;13.70;89.20;;;;;;2092182;28;20045;-93
2021/10/19 01:07:19;;;;;;;7.28;5.00;;;13.70;89.20;;;;;;2093202;28;20029;-94
2021/10/19 01:08:20;;;;;;;6.47;4.57;;;13.70;89.20;;;;;;2093097;28;20041;-93
2021/10/19 01:09:21;;;;;;;6.32;4.60;;;13.70;89.20;;;;;;2092914;28;20028;-92
2021/10/19 01:10:21;;;;;;;7.68;4.80;;;13.70;89.20;;;;;;2093010;28;20473;-93
2021/10/19 01:11:22;;;;;;;7.20;5.10;;;13.70;89.20;;;;;;2083797;28;20038;-92
2021/10/19 01:12:24;;;;;;;5.88;4.40;;;13.70;89.30;;;;;;2083896;28;20044;-92
2021/10/19 01:13:26;;;;;;;6.95;4.88;;;13.80;89.40;;;;;;2091639;28;20071;-92
2021/10/19 01:14:26;;;;;;;6.72;4.60;;;13.70;89.40;;;;;;2083659;28;20377;-93
2021/10/19 01:15:32;;;;;;;6.70;4.90;;;13.70;89.40;;;;;;2086139;28;20124;-92
2021/10/19 01:16:33;;;;;;;6.65;4.63;;;13.70;89.50;;;;;;2076453;28;20041;-93
2021/10/19 01:17:34;;;;;;;6.53;4.70;;;13.70;89.50;;;;;;2083921;28;20038;-92
2021/10/19 01:18:35;;;;;;;6.20;4.53;;;13.70;89.50;;;;;;2084350;28;20030;-92
2021/10/19 01:19:36;;;;;;;7.70;4.50;;;13.70;89.60;;;;;;2075831;28;20022;-93
2021/10/19 01:20:37;;;;;;;7.20;4.93;;;13.70;90.10;;;;;;2076010;28;20096;-92
2021/10/19 01:21:37;;;;;;;7.88;4.78;;;13.70;89.60;;;;;;2084168;28;20399;-93
2021/10/19 01:22:38;;;;;;;5.72;4.13;;;13.70;89.60;;;;;;2075983;28;20519;-92
2021/10/19 01:23:39;;;;;;;6.43;4.57;;;13.70;89.70;;;;;;2075894;28;20072;-92
2021/10/19 01:24:40;;;;;;;7.18;4.63;;;13.70;89.70;;;;;;2082377;28;20041;-93
2021/10/19 01:25:41;;;;;;;6.35;4.50;;;13.70;89.70;;;;;;2076751;28;20038;-94
2021/10/19 01:26:42;;;;;;;7.05;4.60;;;13.70;89.70;;;;;;2071969;28;20045;-92
2021/10/19 01:27:54;;;;;;;7.57;4.70;;;13.70;89.70;;;;;;2074691;28;20037;-92
2021/10/19 01:28:55;;;;;;;6.10;4.57;;;13.70;89.80;;;;;;2098005;28;20044;-93
2021/10/19 01:29:55;;;;;;;7.13;4.88;;;13.70;89.80;;;;;;2110277;28;20023;-92
2021/10/19 01:30:58;;;;;;;8.20;4.95;;;13.70;89.80;;;;;;2103969;28;20064;-93
2021/10/19 01:32:01;;;;;;;6.95;4.93;;;13.70;89.80;;;;;;2084710;28;20095;-93
2021/10/19 01:33:01;;;;;;;6.32;4.47;;;13.70;89.90;;;;;;2100805;28;20048;-94
2021/10/19 01:34:02;;;;;;;6.07;4.30;;;13.70;89.90;;;;;;2092144;28;20073;-93
2021/10/19 01:35:03;;;;;;;8.15;5.28;;;13.70;89.90;;;;;;2084378;28;20056;-93
2021/10/19 01:36:07;;;;;;;6.97;4.70;;;13.70;89.90;;;;;;2083851;28;20037;-92
2021/10/19 01:37:07;;;;;;;7.13;4.50;;;13.70;89.90;;;;;;2074410;28;20037;-93
2021/10/19 01:38:17;;;;;;;7.25;4.93;;;13.70;90.00;;;;;;2091095;28;20094;-92
2021/10/19 01:39:18;;;;;;;7.30;4.65;;;13.70;90.00;;;;;;2096838;28;20035;-93
2021/10/19 01:40:18;;;;;;;7.82;4.90;;;13.70;90.00;;;;;;2090969;28;20036;-93
2021/10/19 01:41:20;;;;;;;7.05;4.65;;;13.70;90.00;;;;;;2082805;28;20144;-93
2021/10/19 01:42:21;;;;;;;6.90;5.07;;;13.70;90.00;;;;;;2085954;28;20504;-94
2021/10/19 01:43:24;;;;;;;7.00;4.90;;;13.70;90.00;;;;;;2074675;28;20042;-92
2021/10/19 01:44:25;;;;;;;6.80;4.93;;;13.70;90.00;;;;;;2066921;28;20115;-93
2021/10/19 01:45:25;;;;;;;6.80;4.70;;;13.70;90.00;;;;;;2066446;28;20051;-94
2021/10/19 01:46:26;;;;;;;6.30;4.72;;;13.70;90.00;;;;;;2066357;28;20077;-93
2021/10/19 01:47:28;;;;;;;6.75;4.80;;;13.70;90.00;;;;;;2058490;28;20042;-94
2021/10/19 01:48:30;;;;;;;6.53;4.28;;;13.70;90.00;;;;;;2066775;28;20070;-93
2021/10/19 01:49:30;;;;;;;5.93;4.53;;;13.70;90.00;;;;;;2074888;28;20041;-92
2021/10/19 01:50:31;;;;;;;6.85;5.00;;;13.70;90.10;;;;;;2074353;28;20099;-93
2021/10/19 01:51:32;;;;;;;7.55;5.00;;;13.70;90.10;;;;;;2082473;28;20041;-92
2021/10/19 01:52:32;;;;;;;7.57;4.45;;;13.70;90.10;;;;;;2082650;28;20064;-93
2021/10/19 01:53:33;;;;;;;6.93;4.57;;;13.70;90.10;;;;;;2074404;28;20189;-93
2021/10/19 01:54:34;;;;;;;6.50;4.90;;;13.70;90.10;;;;;;2074487;28;20030;-93
2021/10/19 01:55:36;;;;;;;6.15;4.45;;;13.80;90.10;;;;;;2071650;28;20377;-94
2021/10/19 01:56:37;;;;;;;6.93;4.70;;;13.80;90.10;;;;;;2083073;28;20114;-93
2021/10/19 01:57:38;;;;;;;7.85;5.00;;;13.80;90.10;;;;;;2082488;28;20034;-93
2021/10/19 01:58:38;;;;;;;6.13;4.63;;;13.80;90.10;;;;;;2075122;28;20132;-94
2021/10/19 01:59:39;;;;;;;6.70;4.93;;;13.80;90.10;;;;;;2083279;28;20049;-94
2021/10/19 02:00:42;;;;;;;6.93;5.13;;;13.80;90.10;;;;;;2092546;28;20057;-93
2021/10/19 02:01:43;;;;;;;7.88;5.03;;;13.80;90.10;;;;;;2099674;28;20410;-94
2021/10/19 02:02:44;;;;;;;5.93;4.50;;;13.80;90.20;;;;;;2085674;28;20152;-92
2021/10/19 02:03:45;;;;;;;6.53;4.40;;;13.80;90.10;;;;;;2103173;28;20053;-94
2021/10/19 02:04:46;;;;;;;6.85;4.80;;;13.80;90.10;;;;;;2082557;28;20026;-94
2021/10/19 02:05:49;;;;;;;6.95;4.72;;;13.80;90.10;;;;;;2066061;28;20050;-93
2021/10/19 02:06:50;;;;;;;7.22;5.13;;;13.80;90.10;;;;;;2090897;28;20426;-93
2021/10/19 02:07:51;;;;;;;7.03;5.20;;;13.80;90.10;;;;;;2090343;28;20072;-93
2021/10/19 02:08:51;;;;;;;6.60;4.68;;;13.80;90.10;;;;;;2082592;28;20038;-94
2021/10/19 02:09:52;;;;;;;7.75;4.70;;;13.80;90.10;;;;;;2082655;28;20128;-93
2021/10/19 02:10:54;;;;;;;7.47;5.00;;;13.80;90.20;;;;;;2090857;28;20035;-92
2021/10/19 02:11:55;;;;;;;6.25;4.68;;;13.90;90.10;;;;;;2090769;28;20128;-93
2021/10/19 02:12:56;;;;;;;6.72;4.82;;;13.90;90.10;;;;;;2082413;28;20030;-93
2021/10/19 02:13:57;;;;;;;7.38;4.68;;;13.90;90.10;;;;;;2066447;28;20532;-94
2021/10/19 02:14:58;;;;;;;7.00;4.93;;;13.90;90.20;;;;;;2068026;28;20492;-93
2021/10/19 02:15:59;;;;;;;7.38;4.65;;;13.90;90.10;;;;;;2100453;28;20127;-92
2021/10/19 02:16:59;;;;;;;6.65;5.07;;;13.90;90.20;;;;;;2099698;28;20037;-92
2021/10/19 02:18:01;;;;;;;7.13;4.95;;;13.90;90.10;;;;;;2078002;28;20037;-94
2021/10/19 02:19:02;;;;;;;7.15;4.82;;;13.90;90.10;;;;;;2077901;28;20451;-93
2021/10/19 02:20:04;;;;;;;6.53;4.60;;;13.90;90.20;;;;;;2082353;28;20037;-94
2021/10/19 02:21:05;;;;;;;7.00;4.97;;;13.90;90.20;;;;;;2082489;28;22410;-94
2021/10/19 02:22:06;;;;;;;6.95;4.72;;;13.90;90.20;;;;;;2083188;28;20042;-94
2021/10/19 02:23:08;;;;;;;7.38;4.85;;;13.90;90.20;;;;;;2082448;28;20079;-94
2021/10/19 02:24:09;;;;;;;8.38;4.95;;;13.90;90.20;;;;;;2074437;28;20093;-93
2021/10/19 02:25:11;;;;;;;6.50;4.85;;;13.90;90.20;;;;;;2090998;28;20510;-93
2021/10/19 02:26:12;;;;;;;6.07;4.47;;;13.90;90.20;;;;;;2081863;28;20061;-93
2021/10/19 02:27:13;;;;;;;6.50;4.75;;;13.90;90.20;;;;;;2074394;28;20038;-93
2021/10/19 02:28:13;;;;;;;6.30;4.55;;;13.90;90.20;;;;;;2090755;28;20044;-93
2021/10/19 02:29:15;;;;;;;7.40;5.00;;;13.90;90.20;;;;;;2083088;28;20069;-93
2021/10/19 02:30:17;;;;;;;7.07;4.57;;;13.90;90.20;;;;;;2082788;28;20033;-94
2021/10/19 02:31:17;;;;;;;6.95;5.07;;;13.90;90.20;;;;;;2082872;28;20037;-93
2021/10/19 02:32:18;;;;;;;6.55;4.82;;;13.90;90.20;;;;;;2082594;28;20065;-94
2021/10/19 02:33:19;;;;;;;6.80;4.57;;;14.00;90.20;;;;;;2082855;28;20080;-92
2021/10/19 02:34:22;;;;;;;6.53;4.60;;;13.90;90.20;;;;;;2082789;28;20081;-92
2021/10/19 02:35:23;;;;;;;7.45;5.22;;;14.00;90.30;;;;;;2073786;28;20041;-93
2021/10/19 02:36:24;;;;;;;6.28;4.57;;;13.90;90.20;;;;;;2074050;28;20042;-93
2021/10/19 02:37:24;;;;;;;8.15;5.15;;;13.90;90.20;;;;;;2074172;28;20030;-93
2021/10/19 02:38:25;;;;;;;7.03;4.50;;;14.00;90.30;;;;;;2074321;28;20484;-93
2021/10/19 02:39:26;;;;;;;8.20;4.88;;;14.00;90.30;;;;;;2074085;28;20041;-93
2021/10/19 02:40:26;;;;;;;6.28;4.60;;;13.90;90.30;;;;;;2074090;28;20046;-93
2021/10/19 02:41:27;;;;;;;6.47;4.60;;;13.90;90.30;;;;;;2082912;28;20048;-94
2021/10/19 02:42:28;;;;;;;6.95;4.75;;;14.00;90.30;;;;;;2081880;28;20037;-93
2021/10/19 02:43:28;;;;;;;6.10;4.30;;;13.90;90.30;;;;;;2082354;28;20463;-93
2021/10/19 02:44:29;;;;;;;6.13;4.57;;;13.90;90.30;;;;;;2081981;28;20163;-93
2021/10/19 02:45:30;;;;;;;7.95;4.97;;;14.00;90.40;;;;;;2074083;28;20057;-94
2021/10/19 02:46:31;;;;;;;7.50;5.05;;;14.00;90.30;;;;;;2082280;28;20041;-93
2021/10/19 02:47:32;;;;;;;6.05;4.55;;;14.00;90.30;;;;;;2074158;28;20484;-93
2021/10/19 02:48:33;;;;;;;6.75;4.95;;;14.00;90.30;;;;;;2073145;28;20038;-93
2021/10/19 02:49:33;;;;;;;6.63;4.68;;;14.00;90.30;;;;;;2073885;28;20037;-93
2021/10/19 02:50:34;;;;;;;6.97;4.57;;;14.00;90.30;;;;;;2082899;28;20088;-93
2021/10/19 02:51:34;;;;;;;7.93;5.00;;;14.00;90.40;;;;;;2081887;28;20038;-93
2021/10/19 02:52:35;;;;;;;6.18;4.55;;;14.00;90.40;;;;;;2074249;28;20053;-93
2021/10/19 02:53:36;;;;;;;7.55;4.80;;;14.00;90.40;;;;;;2074431;28;20040;-92
2021/10/19 02:54:38;;;;;;;6.35;4.50;;;14.00;90.40;;;;;;2082205;28;20045;-94
2021/10/19 02:55:39;;;;;;;5.93;4.50;;;14.00;90.40;;;;;;2073895;28;20030;-93
2021/10/19 02:56:39;;;;;;;6.18;4.60;;;14.00;90.40;;;;;;2082214;28;20049;-93
2021/10/19 02:57:40;;;;;;;6.82;4.47;;;14.00;90.40;;;;;;2082421;28;20067;-93
2021/10/19 02:58:41;;;;;;;7.55;5.10;;;14.00;90.40;;;;;;2082065;28;20038;-93
2021/10/19 02:59:41;;;;;;;6.88;4.93;;;14.00;90.40;;;;;;2082097;28;20144;-94
2021/10/19 03:00:42;;;;;;;7.68;5.05;;;14.00;90.40;;;;;;2074142;28;20534;-94
2021/10/19 03:01:42;;;;;;;6.43;4.75;;;14.00;90.50;;;;;;2090455;28;20044;-93
2021/10/19 03:02:43;;;;;;;6.82;4.50;;;14.00;90.50;;;;;;2082030;28;20045;-93
2021/10/19 03:03:44;;;;;;;6.78;4.88;;;14.00;90.50;;;;;;2082525;28;20033;-93
2021/10/19 03:04:45;;;;;;;6.35;4.35;;;14.00;90.50;;;;;;2090377;28;20040;-94
2021/10/19 03:05:46;;;;;;;6.50;4.68;;;14.00;90.50;;;;;;2090154;28;20489;-93
2021/10/19 03:06:46;;;;;;;5.97;4.32;;;14.10;90.60;;;;;;2081634;28;20037;-93
2021/10/19 03:07:47;;;;;;;6.95;5.05;;;14.00;90.50;;;;;;2090377;28;20033;-94
2021/10/19 03:08:48;;;;;;;6.80;4.80;;;14.10;90.60;;;;;;2090250;28;20033;-94
2021/10/19 03:09:48;;;;;;;6.10;4.40;;;14.00;90.50;;;;;;2090417;28;20029;-93
2021/10/19 03:10:49;;;;;;;6.60;4.57;;;14.10;90.60;;;;;;2081820;28;20109;-92
2021/10/19 03:11:50;;;;;;;6.68;4.55;;;14.10;90.60;;;;;;2082048;28;20033;-93
2021/10/19 03:12:51;;;;;;;6.90;4.47;;;14.00;90.60;;;;;;2082101;28;20069;-94
2021/10/19 03:13:51;;;;;;;6.43;4.63;;;14.10;90.60;;;;;;2074044;28;20121;-93
2021/10/19 03:14:52;;;;;;;7.45;4.38;;;14.10;90.60;;;;;;2081803;28;20134;-93
2021/10/19 03:15:53;;;;;;;6.30;4.45;;;14.10;90.60;;;;;;2090309;28;20083;-93
2021/10/19 03:16:53;;;;;;;7.07;4.10;;;14.10;90.60;;;;;;2082166;28;20033;-93
2021/10/19 03:17:54;;;;;;;6.78;4.43;;;14.10;90.70;;;;;;2065587;28;20045;-93
2021/10/19 03:18:54;;;;;;;7.65;4.45;;;14.10;90.70;;;;;;2073812;28;20396;-93
2021/10/19 03:19:55;;;;;;;5.90;4.20;;;14.10;90.70;;;;;;2065904;28;20030;-93
2021/10/19 03:20:56;;;;;;;7.63;4.72;;;14.10;90.70;;;;;;2065854;28;20038;-95
2021/10/19 03:21:56;;;;;;;7.32;4.68;;;14.10;90.70;;;;;;2065471;28;20085;-94
2021/10/19 03:22:57;;;;;;;6.75;4.50;;;14.20;90.80;;;;;;2073894;28;20133;-92
2021/10/19 03:23:58;;;;;;;6.35;4.35;;;14.20;90.80;;;;;;2070482;28;20245;-94
2021/10/19 03:24:59;;;;;;;6.30;4.60;;;14.20;90.80;;;;;;2073611;28;20122;-93
2021/10/19 03:25:59;;;;;;;6.38;4.85;;;14.20;90.80;;;;;;2090028;28;20037;-93
2021/10/19 03:27:00;;;;;;;6.63;4.97;;;14.20;90.80;;;;;;2090450;28;20044;-94
2021/10/19 03:28:01;;;;;;;6.72;5.30;;;14.20;90.80;;;;;;2090367;28;20033;-92
2021/10/19 03:29:01;;;;;;;7.43;4.95;;;14.20;90.80;;;;;;2081872;28;20510;-93
2021/10/19 03:30:04;;;;;;;7.85;5.32;;;14.20;90.90;;;;;;2082065;28;20065;-95
2021/10/19 03:31:05;;;;;;;7.07;5.18;;;14.20;90.90;;;;;;2090040;28;20033;-93
2021/10/19 03:32:06;;;;;;;7.70;6.00;;;14.20;90.90;;;;;;2082151;28;20091;-93
2021/10/19 03:33:07;;;;;;;6.40;5.15;;;14.20;90.90;;;;;;2090374;28;20067;-92
2021/10/19 03:34:07;;;;;;;7.00;5.72;;;14.20;90.90;;;;;;2089784;28;20077;-93
2021/10/19 03:35:08;;;;;;;7.07;5.63;;;14.20;90.90;;;;;;2090338;28;20594;-94
2021/10/19 03:36:09;;;;;;;6.63;5.60;;;14.20;91.00;;;;;;2081870;28;20037;-93
2021/10/19 03:37:10;;;;;;;6.38;5.22;;;14.20;91.00;;;;;;2081953;28;20508;-93
2021/10/19 03:38:10;;;;;;;6.50;5.15;;;14.20;91.00;;;;;;2081861;28;20037;-92
2021/10/19 03:39:11;;;;;;;6.55;5.07;;;14.20;91.00;;;;;;2064923;28;20083;-92
2021/10/19 03:40:11;;;;;;;7.15;5.32;;;14.20;91.10;;;;;;2058021;28;20042;-92
2021/10/19 03:41:12;;;;;;;6.88;5.05;;;14.20;91.10;;;;;;2059487;28;20106;-94
2021/10/19 03:42:13;;;;;;;6.90;4.93;;;14.20;91.10;;;;;;2067072;28;20111;-92
2021/10/19 03:43:13;;;;;;;6.53;5.00;;;14.20;91.10;;;;;;2066512;28;20025;-83
2021/10/19 03:44:14;;;;;;;6.68;5.18;;;14.20;91.20;;;;;;2075730;28;20019;-93
2021/10/19 03:45:16;;;;;;;6.93;5.60;;;14.20;91.20;;;;;;2083851;28;20065;-91
2021/10/19 03:46:17;;;;;;;7.22;5.53;;;14.20;91.20;;;;;;2083951;28;20030;-90
2021/10/19 03:47:18;;;;;;;6.80;4.95;;;14.20;91.30;;;;;;2082931;28;20034;-93
2021/10/19 03:48:19;;;;;;;6.03;4.95;;;14.20;91.30;;;;;;2083126;28;20510;-92
2021/10/19 03:49:20;;;;;;;7.15;5.13;;;14.20;91.30;;;;;;2082740;28;20586;-93
2021/10/19 03:50:21;;;;;;;7.28;5.13;;;14.20;91.30;;;;;;2090516;28;20037;-92
2021/10/19 03:51:21;;;;;;;6.82;4.90;;;14.20;91.60;;;;;;2096176;28;20040;-93
2021/10/19 03:52:22;;;;;;;5.95;4.60;;;14.20;91.40;;;;;;2090172;28;20136;-92
2021/10/19 03:53:24;;;;;;;7.53;5.00;;;14.20;91.40;;;;;;2073832;28;20038;-93
2021/10/19 03:54:26;;;;;;;6.40;5.13;;;14.20;91.50;;;;;;2064894;28;20054;-92
2021/10/19 03:55:26;;;;;;;6.63;5.00;;;14.20;91.50;;;;;;2065592;28;20444;-93
2021/10/19 03:56:27;;;;;;;6.53;5.20;;;14.20;91.50;;;;;;2073985;28;20125;-92
2021/10/19 03:57:28;;;;;;;6.68;4.82;;;14.20;91.50;;;;;;2085385;28;20040;-92
2021/10/19 03:58:28;;;;;;;7.28;5.43;;;14.20;91.60;;;;;;2081929;28;20100;-92
2021/10/19 03:59:29;;;;;;;6.43;4.90;;;14.20;91.60;;;;;;2081570;28;20059;-92
2021/10/19 04:00:30;;;;;;;6.20;5.00;;;14.20;91.60;;;;;;2073362;28;20041;-92
2021/10/19 04:01:31;;;;;;;6.80;4.38;;;14.20;91.60;;;;;;2065387;28;20034;-92
2021/10/19 04:02:31;;;;;;;5.90;4.50;;;14.20;91.60;;;;;;2073702;28;20042;-92
2021/10/19 04:03:32;;;;;;;6.93;4.93;;;14.20;91.70;;;;;;2073647;28;20042;-92
2021/10/19 04:04:35;;;;;;;7.25;4.95;;;14.20;91.70;;;;;;2073521;28;20077;-92
2021/10/19 04:05:36;;;;;;;7.45;4.88;;;14.20;91.70;;;;;;2081444;28;20034;-94
2021/10/19 04:06:37;;;;;;;7.07;5.00;;;14.20;91.70;;;;;;2072626;28;20045;-93
2021/10/19 04:07:38;;;;;;;6.68;4.88;;;14.20;91.70;;;;;;2066423;28;20030;-92
2021/10/19 04:08:39;;;;;;;6.45;4.72;;;14.20;91.70;;;;;;2081463;28;20033;-93
2021/10/19 04:09:40;;;;;;;6.95;4.70;;;14.20;91.80;;;;;;2081699;28;20051;-93
2021/10/19 04:10:41;;;;;;;6.45;4.68;;;14.20;91.80;;;;;;2073432;28;20128;-92
2021/10/19 04:11:42;;;;;;;7.30;4.75;;;14.20;91.80;;;;;;2073339;28;20026;-92
2021/10/19 04:12:42;;;;;;;6.30;4.70;;;14.20;91.80;;;;;;2065193;28;20034;-93
2021/10/19 04:13:43;;;;;;;6.93;4.63;;;14.20;91.80;;;;;;2073443;28;20038;-93
2021/10/19 04:14:44;;;;;;;6.35;4.75;;;14.20;91.80;;;;;;2081184;28;20184;-93
2021/10/19 04:15:44;;;;;;;5.82;4.53;;;14.20;91.90;;;;;;2073525;28;20037;-92
2021/10/19 04:16:45;;;;;;;6.50;4.82;;;14.20;91.90;;;;;;2073387;28;20052;-93
2021/10/19 04:17:46;;;;;;;7.63;4.97;;;14.20;91.90;;;;;;2073566;28;20096;-93
2021/10/19 04:18:46;;;;;;;6.85;4.93;;;14.20;91.90;;;;;;2075694;28;20101;-92
2021/10/19 04:19:47;;;;;;;7.35;4.82;;;14.20;91.90;;;;;;2081690;28;20037;-93
2021/10/19 04:20:48;;;;;;;6.32;4.43;;;14.20;91.90;;;;;;2070922;28;20433;-91
2021/10/19 04:21:49;;;;;;;6.88;4.63;;;14.20;91.90;;;;;;2065330;28;20045;-92
2021/10/19 04:22:50;;;;;;;7.72;4.60;;;14.20;91.90;;;;;;2073107;28;20042;-92
2021/10/19 04:23:51;;;;;;;5.97;4.45;;;14.20;92.20;;;;;;2057346;28;20493;-93
2021/10/19 04:24:52;;;;;;;5.78;4.20;;;14.20;91.90;;;;;;2057301;28;20102;-92
2021/10/19 04:25:53;;;;;;;6.47;4.57;;;14.20;92.00;;;;;;2073240;28;20448;-92
2021/10/19 04:26:54;;;;;;;6.40;4.72;;;14.20;92.00;;;;;;2073518;28;20057;-92
2021/10/19 04:27:54;;;;;;;6.32;4.63;;;14.20;92.00;;;;;;2057173;28;20031;-93
2021/10/19 04:28:55;;;;;;;6.45;4.60;;;14.30;92.00;;;;;;2065440;28;20038;-92
2021/10/19 04:29:56;;;;;;;6.88;4.15;;;14.20;92.00;;;;;;2089790;28;20033;-92
2021/10/19 04:30:56;;;;;;;6.10;4.43;;;14.20;92.00;;;;;;2089716;28;20041;-93
2021/10/19 04:31:57;;;;;;;7.07;4.72;;;14.20;92.00;;;;;;2081696;28;20496;-92
2021/10/19 04:32:58;;;;;;;6.60;4.68;;;14.20;92.00;;;;;;2073766;28;20038;-94
2021/10/19 04:33:59;;;;;;;6.57;4.45;;;14.30;92.10;;;;;;2073330;28;20052;-92
2021/10/19 04:35:00;;;;;;;6.25;4.40;;;14.30;92.10;;;;;;2057205;28;20086;-92
2021/10/19 04:36:04;;;;;;;6.30;4.82;;;14.30;92.10;;;;;;2065277;28;20062;-92
2021/10/19 04:37:05;;;;;;;6.13;4.50;;;14.30;92.10;;;;;;2066420;28;20074;-93
2021/10/19 04:38:06;;;;;;;7.45;4.57;;;14.30;92.10;;;;;;2083175;28;20083;-92
2021/10/19 04:39:06;;;;;;;6.28;4.43;;;14.30;92.10;;;;;;2090059;28;20483;-92
2021/10/19 04:40:09;;;;;;;5.40;4.25;;;14.30;92.10;;;;;;2073597;28;20099;-92
2021/10/19 04:41:09;;;;;;;7.35;4.95;;;14.30;92.10;;;;;;2073877;28;20041;-92
2021/10/19 04:42:10;;;;;;;6.65;4.60;;;14.30;92.10;;;;;;2073396;28;20164;-93
2021/10/19 04:43:11;;;;;;;6.93;4.55;;;14.30;92.10;;;;;;2065543;28;20057;-92
2021/10/19 04:44:12;;;;;;;6.32;4.28;;;14.30;92.10;;;;;;2065430;28;20030;-94
2021/10/19 04:45:16;;;;;;;6.10;4.40;;;14.30;92.10;;;;;;2073604;28;20045;-93
2021/10/19 04:46:17;;;;;;;5.82;4.47;;;14.30;92.10;;;;;;2073511;28;20038;-93
2021/10/19 04:47:18;;;;;;;6.28;4.70;;;14.30;92.10;;;;;;2073793;28;20034;-94
2021/10/19 04:48:18;;;;;;;6.82;4.75;;;14.30;92.10;;;;;;2091456;28;20036;-92
2021/10/19 04:49:20;;;;;;;6.15;4.57;;;14.30;92.10;;;;;;2090890;28;20040;-92
2021/10/19 04:50:20;;;;;;;6.55;4.68;;;14.30;92.20;;;;;;2073284;28;20092;-94
2021/10/19 04:51:21;;;;;;;6.15;4.60;;;14.40;92.20;;;;;;2060023;28;20042;-93
2021/10/19 04:52:23;;;;;;;6.97;4.75;;;14.30;92.20;;;;;;2057169;28;20054;-92
2021/10/19 04:53:23;;;;;;;6.93;4.90;;;14.30;92.20;;;;;;2057129;28;20039;-94
2021/10/19 04:54:25;;;;;;;5.93;4.68;;;14.30;92.20;;;;;;2056815;28;20090;-92
2021/10/19 04:55:25;;;;;;;6.07;4.50;;;14.40;92.50;;;;;;2050468;28;20032;-92
2021/10/19 04:56:26;;;;;;;5.70;4.65;;;14.30;92.20;;;;;;2057946;28;20123;-92
2021/10/19 04:57:27;;;;;;;6.63;4.82;;;14.30;92.20;;;;;;2057421;28;20528;-92
2021/10/19 04:58:27;;;;;;;5.88;4.72;;;14.30;92.20;;;;;;2065282;28;20066;-93
2021/10/19 04:59:28;;;;;;;6.50;4.60;;;14.30;92.30;;;;;;2073268;28;20048;-94
2021/10/19 05:00:29;;;;;;;6.20;4.55;;;14.30;92.30;;;;;;2073475;28;20038;-93
2021/10/19 05:01:29;;;;;;;9.02;4.90;;;14.30;92.30;;;;;;2065328;28;20061;-93
2021/10/19 05:02:30;;;;;;;6.35;4.95;;;14.40;92.30;;;;;;2065489;28;20070;-93
2021/10/19 05:03:31;;;;;;;6.50;4.97;;;14.30;92.60;;;;;;2081651;28;20037;-93
2021/10/19 05:04:31;;;;;;;6.72;4.50;;;14.30;92.30;;;;;;2065414;28;20044;-93
2021/10/19 05:05:32;;;;;;;6.65;4.70;;;14.40;92.40;;;;;;2065430;28;20037;-93
2021/10/19 05:06:32;;;;;;;6.18;4.60;;;14.30;92.30;;;;;;2057623;28;20132;-94
2021/10/19 05:07:33;;;;;;;7.97;5.60;;;14.30;92.40;;;;;;2058058;28;20070;-92
2021/10/19 05:08:34;;;;;;;6.15;4.65;;;14.30;92.40;;;;;;2065780;28;20198;-93
2021/10/19 05:09:34;;;;;;;6.97;4.93;;;14.30;92.40;;;;;;2073636;28;20034;-93
2021/10/19 05:10:35;;;;;;;5.72;4.60;;;14.30;92.50;;;;;;2074507;28;20064;-92
2021/10/19 05:11:36;;;;;;;6.05;4.60;;;14.30;92.40;;;;;;2087393;28;20045;-92
2021/10/19 05:12:37;;;;;;;6.80;4.72;;;14.30;92.50;;;;;;2098321;28;20089;-93
2021/10/19 05:13:37;;;;;;;7.68;5.07;;;14.30;92.50;;;;;;2087875;28;20094;-93
2021/10/19 05:14:38;;;;;;;7.35;4.70;;;14.30;92.50;;;;;;2088559;28;20124;-94
2021/10/19 05:15:38;;;;;;;7.20;5.22;;;14.30;92.50;;;;;;2087498;28;20289;-93
2021/10/19 05:16:39;;;;;;;6.45;4.85;;;14.30;92.60;;;;;;2076935;28;20046;-93
2021/10/19 05:17:40;;;;;;;6.20;4.68;;;14.30;92.60;;;;;;2067494;28;20030;-93
2021/10/19 05:18:40;;;;;;;6.72;4.93;;;14.30;92.60;;;;;;2067293;28;20578;-93